createdAt,value
2022-08-05T00:00:14.227Z,483.5
2022-08-05T00:01:57.939Z,483.7
2022-08-05T00:03:41.632Z,480.6
2022-08-05T00:05:25.345Z,481
2022-08-05T00:07:09.031Z,482.9
2022-08-05T00:08:52.748Z,482.9
2022-08-05T00:10:36.444Z,481.7
2022-08-05T00:12:20.170Z,484
2022-08-05T00:14:03.864Z,488.3
2022-08-05T00:15:47.546Z,491.4
2022-08-05T00:17:31.276Z,491.2
2022-08-05T00:19:14.966Z,490.5
2022-08-05T00:20:58.681Z,490.3
2022-08-05T00:22:42.370Z,487.9
2022-08-05T00:24:26.080Z,488.1
2022-08-05T00:26:09.779Z,488.4
2022-08-05T00:27:53.447Z,489.2
2022-08-05T00:29:37.185Z,486.5
2022-08-05T00:31:20.881Z,487.2
2022-08-05T00:33:04.616Z,487.4
2022-08-05T00:34:48.278Z,487.1
2022-08-05T00:36:31.979Z,485.8
2022-08-05T00:38:15.683Z,487.6
2022-08-05T00:39:59.388Z,489.9
2022-08-05T00:41:43.092Z,491
2022-08-05T00:43:26.794Z,492.4
2022-08-05T00:45:10.523Z,492
2022-08-05T00:46:54.184Z,489.9
2022-08-05T00:48:37.904Z,489.6
2022-08-05T00:50:21.648Z,489.2
2022-08-05T00:52:05.329Z,488.2
2022-08-05T00:53:49.002Z,488.1
2022-08-05T00:55:32.738Z,486.8
2022-08-05T00:57:16.416Z,486.6
2022-08-05T00:59:00.116Z,483.2
2022-08-05T01:00:43.839Z,484.9
2022-08-05T01:02:27.544Z,481.4
2022-08-05T01:04:11.219Z,480
2022-08-05T01:05:54.955Z,480.3
2022-08-05T01:07:38.637Z,482.6
2022-08-05T01:09:22.373Z,485.5
2022-08-05T01:11:06.064Z,488.8
2022-08-05T01:12:49.745Z,487.6
2022-08-05T01:14:33.467Z,484.6
2022-08-05T01:16:17.158Z,482.7
2022-08-05T01:18:00.865Z,481
2022-08-05T01:19:44.570Z,481.1
2022-08-05T01:21:28.245Z,481
2022-08-05T01:23:11.940Z,482.6
2022-08-05T01:24:55.685Z,482.3
2022-08-05T01:26:39.367Z,482.1
2022-08-05T01:28:23.066Z,484.4
2022-08-05T01:30:06.750Z,486.1
2022-08-05T01:31:50.462Z,488.8
2022-08-05T01:33:34.177Z,488.1
2022-08-05T01:35:17.839Z,487.4
2022-08-05T01:37:01.553Z,484.1
2022-08-05T01:38:45.299Z,482.7
2022-08-05T01:40:29.017Z,482.3
2022-08-05T01:42:12.692Z,483.9
2022-08-05T01:43:56.376Z,484.7
2022-08-05T01:45:40.156Z,482.8
2022-08-05T01:47:23.769Z,481.6
2022-08-05T01:49:07.493Z,480.4
2022-08-05T01:50:51.177Z,477.8
2022-08-05T01:52:34.914Z,476.7
2022-08-05T01:54:18.595Z,474.6
2022-08-05T01:56:02.278Z,475
2022-08-05T01:57:45.973Z,475.4
2022-08-05T01:59:29.718Z,473.6
2022-08-05T02:01:13.382Z,472.8
2022-08-05T02:02:57.075Z,472.3
2022-08-05T02:04:40.781Z,475.5
2022-08-05T02:06:24.500Z,477.7
2022-08-05T02:08:08.254Z,476.3
2022-08-05T02:09:51.866Z,476.9
2022-08-05T02:11:35.576Z,479.7
2022-08-05T02:13:19.300Z,478.6
2022-08-05T02:15:03.006Z,478.3
2022-08-05T02:16:46.681Z,475.6
2022-08-05T02:18:30.391Z,474.4
2022-08-05T02:20:14.118Z,475.2
2022-08-05T02:21:57.823Z,478.4
2022-08-05T02:23:41.527Z,479.5
2022-08-05T02:27:08.905Z,481.7
2022-08-05T02:28:52.617Z,483
2022-08-05T02:30:36.319Z,480
2022-08-05T02:32:20.026Z,477.6
2022-08-05T02:34:03.751Z,479
2022-08-05T02:35:47.464Z,480.3
2022-08-05T02:37:31.134Z,480.3
2022-08-05T02:39:14.835Z,480.1
2022-08-05T02:40:58.546Z,481.8
2022-08-05T02:42:42.255Z,481.3
2022-08-05T02:44:25.948Z,480.1
2022-08-05T02:46:09.655Z,478.9
2022-08-05T02:47:53.343Z,479.5
2022-08-05T02:49:37.009Z,478.6
2022-08-05T02:51:20.752Z,478.1
2022-08-05T02:53:04.437Z,478.2
2022-08-05T02:54:48.161Z,478.3
2022-08-05T02:56:31.863Z,477.7
2022-08-05T02:58:15.532Z,476.7
2022-08-05T02:59:59.234Z,476.3
2022-08-05T03:01:42.941Z,473.9
2022-08-05T03:03:26.661Z,474.2
2022-08-05T03:05:10.375Z,478.9
2022-08-05T03:06:54.035Z,482.3
2022-08-05T03:08:37.778Z,482.3
2022-08-05T03:10:21.482Z,479.1
2022-08-05T03:12:05.176Z,477.4
2022-08-05T03:13:48.856Z,478.3
2022-08-05T03:15:32.570Z,476.5
2022-08-05T03:17:16.257Z,482.3
2022-08-05T03:18:59.998Z,484.8
2022-08-05T03:20:43.688Z,486.1
2022-08-05T03:22:27.373Z,485
2022-08-05T03:24:11.074Z,482
2022-08-05T03:25:54.770Z,478.7
2022-08-05T03:27:38.485Z,473.1
2022-08-05T03:29:22.188Z,471.5
2022-08-05T03:31:05.890Z,472.1
2022-08-05T03:32:49.611Z,470.8
2022-08-05T03:34:33.291Z,473.7
2022-08-05T03:36:16.992Z,477.7
2022-08-05T03:38:00.714Z,477.5
2022-08-05T03:39:44.393Z,481.5
2022-08-05T03:41:28.101Z,485.4
2022-08-05T03:43:11.813Z,485
2022-08-05T03:44:55.511Z,482.6
2022-08-05T03:46:39.223Z,481.8
2022-08-05T03:48:22.896Z,480.9
2022-08-05T03:50:06.615Z,479.1
2022-08-05T03:51:50.322Z,477.5
2022-08-05T03:53:33.998Z,474.4
2022-08-05T03:55:17.696Z,471.2
2022-08-05T03:57:01.429Z,470.5
2022-08-05T03:58:45.101Z,471.7
2022-08-05T04:00:28.825Z,470.9
2022-08-05T04:02:12.507Z,476.2
2022-08-05T04:03:56.213Z,479.4
2022-08-05T04:05:39.925Z,480.2
2022-08-05T04:07:23.604Z,477.8
2022-08-05T04:09:07.297Z,480.8
2022-08-05T04:10:51.035Z,481.9
2022-08-05T04:14:18.402Z,482.2
2022-08-05T04:16:02.099Z,481.1
2022-08-05T04:17:45.812Z,480.6
2022-08-05T04:19:29.520Z,479.1
2022-08-05T04:21:13.216Z,479.4
2022-08-05T04:22:56.919Z,480.4
2022-08-05T04:24:40.608Z,483
2022-08-05T04:26:24.321Z,484.7
2022-08-05T04:28:08.009Z,483.3
2022-08-05T04:29:51.699Z,483.3
2022-08-05T04:31:35.419Z,482.8
2022-08-05T04:33:19.113Z,482.4
2022-08-05T04:35:02.797Z,479.7
2022-08-05T04:36:46.512Z,482.5
2022-08-05T04:38:30.209Z,485.3
2022-08-05T04:40:13.907Z,482
2022-08-05T04:41:57.611Z,480.5
2022-08-05T04:43:41.317Z,478.4
2022-08-05T04:45:25.022Z,477.3
2022-08-05T04:47:08.725Z,475.7
2022-08-05T04:48:52.422Z,473.2
2022-08-05T04:50:36.126Z,475.5
2022-08-05T04:52:19.829Z,478.4
2022-08-05T04:54:03.556Z,478.5
2022-08-05T04:55:47.235Z,477.1
2022-08-05T04:57:30.923Z,476.6
2022-08-05T04:59:14.622Z,477.8
2022-08-05T05:02:42.044Z,480.3
2022-08-05T05:04:25.754Z,482.7
2022-08-05T05:06:09.439Z,481.4
2022-08-05T05:07:53.149Z,480.1
2022-08-05T05:09:36.867Z,478.8
2022-08-05T05:11:20.550Z,475.3
2022-08-05T05:13:04.265Z,474.7
2022-08-05T05:14:47.961Z,473.5
2022-08-05T05:16:31.651Z,474
2022-08-05T05:18:15.354Z,470.9
2022-08-05T05:19:59.063Z,472.5
2022-08-05T05:21:42.768Z,470.8
2022-08-05T05:23:26.467Z,465.2
2022-08-05T05:25:10.177Z,466
2022-08-05T05:26:53.871Z,465.2
2022-08-05T05:28:37.605Z,461.6
2022-08-05T05:30:21.270Z,457
2022-08-05T05:32:05.067Z,454.7
2022-08-05T05:33:48.677Z,450.3
2022-08-05T05:35:32.383Z,450.6
2022-08-05T05:37:16.082Z,449.6
2022-08-05T05:38:59.787Z,450.5
2022-08-05T05:40:43.505Z,449
2022-08-05T05:42:27.193Z,447.3
2022-08-05T05:44:10.871Z,446
2022-08-05T05:45:54.574Z,444.5
2022-08-05T05:47:38.300Z,442.7
2022-08-05T05:49:22.002Z,441.3
2022-08-05T05:51:05.679Z,442.8
2022-08-05T05:52:49.400Z,442.8
2022-08-05T05:54:33.083Z,440.2
2022-08-05T05:56:16.804Z,441.8
2022-08-05T05:58:00.532Z,440.7
2022-08-05T05:59:44.200Z,446.7
2022-08-05T06:01:27.907Z,449.8
2022-08-05T06:03:11.599Z,451.7
2022-08-05T06:04:55.315Z,454.6
2022-08-05T06:06:39.002Z,453.7
2022-08-05T06:08:22.706Z,455.3
2022-08-05T06:10:06.441Z,455.6
2022-08-05T06:11:50.110Z,452.6
2022-08-05T06:13:33.819Z,453.5
2022-08-05T06:15:17.542Z,454.5
2022-08-05T06:17:01.237Z,453.9
2022-08-05T06:18:44.935Z,453
2022-08-05T06:20:28.629Z,452.8
2022-08-05T06:22:12.339Z,452.3
2022-08-05T06:23:56.019Z,449.7
2022-08-05T06:25:39.728Z,443.1
2022-08-05T06:27:23.441Z,438.7
2022-08-05T06:29:07.163Z,439
2022-08-05T06:30:50.832Z,436.3
2022-08-05T06:32:34.545Z,434.6
2022-08-05T06:34:18.249Z,433.8
2022-08-05T06:36:01.936Z,427.3
2022-08-05T06:37:45.635Z,426.2
2022-08-05T06:39:29.352Z,423.6
2022-08-05T06:41:13.035Z,423.6
2022-08-05T06:42:56.747Z,424.4
2022-08-05T06:44:40.438Z,426.4
2022-08-05T06:46:24.141Z,432
2022-08-05T06:48:07.901Z,432.5
2022-08-05T06:49:51.563Z,434.6
2022-08-05T06:51:35.257Z,437.8
2022-08-05T06:53:18.952Z,439.5
2022-08-05T06:55:02.666Z,441
2022-08-05T06:56:46.366Z,443.3
2022-08-05T06:58:30.079Z,440.6
2022-08-05T07:00:13.765Z,440.3
2022-08-05T07:01:57.468Z,440.9
2022-08-05T07:03:41.190Z,441.9
2022-08-05T07:05:24.875Z,444
2022-08-05T07:07:08.563Z,444.1
2022-08-05T07:08:52.275Z,444.9
2022-08-05T07:10:35.970Z,446.7
2022-08-05T07:12:19.696Z,449.4
2022-08-05T07:14:03.401Z,453.7
2022-08-05T07:15:47.098Z,456.8
2022-08-05T07:17:30.800Z,461.9
2022-08-05T07:19:14.493Z,467.4
2022-08-05T07:20:58.189Z,470.5
2022-08-05T07:22:41.919Z,469.9
2022-08-05T07:24:25.593Z,468.7
2022-08-05T07:26:09.282Z,468.5
2022-08-05T07:27:53.007Z,466.4
2022-08-05T07:29:36.720Z,463.2
2022-08-05T07:31:20.386Z,464.8
2022-08-05T07:33:04.098Z,468.9
2022-08-05T07:34:47.801Z,471.3
2022-08-05T07:36:31.509Z,476.8
2022-08-05T07:38:15.194Z,482.2
2022-08-05T07:39:58.902Z,484.9
2022-08-05T07:41:42.600Z,489.3
2022-08-05T07:43:26.318Z,490.3
2022-08-05T07:45:09.999Z,493.6
2022-08-05T07:46:53.704Z,495.4
2022-08-05T07:48:37.410Z,497.6
2022-08-05T07:50:21.128Z,499.7
2022-08-05T07:52:05.414Z,503.1
2022-08-05T07:53:48.513Z,510.6
2022-08-05T07:55:32.211Z,512.6
2022-08-05T07:57:15.906Z,514.6
2022-08-05T07:58:59.619Z,514.2
2022-08-05T08:00:43.326Z,519.9
2022-08-05T08:02:27.024Z,527.1
2022-08-05T08:04:10.720Z,530.6
2022-08-05T08:05:54.423Z,530.9
2022-08-05T08:07:38.116Z,529.9
2022-08-05T08:09:21.852Z,528.9
2022-08-05T08:11:05.553Z,532.5
2022-08-05T08:12:49.230Z,534.4
2022-08-05T08:14:32.938Z,535.1
2022-08-05T08:16:16.640Z,539.4
2022-08-05T08:18:00.336Z,544.2
2022-08-05T08:19:44.057Z,545.3
2022-08-05T08:21:27.746Z,545.7
2022-08-05T08:23:11.450Z,546.3
2022-08-05T08:24:55.154Z,549.3
2022-08-05T08:26:38.844Z,550.9
2022-08-05T08:28:22.547Z,549
2022-08-05T08:30:06.261Z,549.2
2022-08-05T08:31:49.950Z,551.2
2022-08-05T08:33:33.648Z,550.2
2022-08-05T08:35:17.349Z,548.4
2022-08-05T08:37:01.057Z,548.9
2022-08-05T08:38:44.764Z,550
2022-08-05T08:40:28.456Z,551.7
2022-08-05T08:42:12.162Z,553
2022-08-05T08:43:55.874Z,554.2
2022-08-05T08:45:39.575Z,560.8
2022-08-05T08:47:23.284Z,567.6
2022-08-05T08:49:07.006Z,570.9
2022-08-05T08:50:50.681Z,570.8
2022-08-05T08:52:34.397Z,576.3
2022-08-05T08:54:18.093Z,590.3
2022-08-05T08:56:01.793Z,604.9
2022-08-05T08:57:45.497Z,611.6
2022-08-05T08:59:29.184Z,609.3
2022-08-05T09:01:12.906Z,609.6
2022-08-05T09:02:56.620Z,607.3
2022-08-05T09:04:40.306Z,606.5
2022-08-05T09:06:24.037Z,609.2
2022-08-05T09:08:07.728Z,610.5
2022-08-05T09:09:51.424Z,614.5
2022-08-05T09:11:35.119Z,626.4
2022-08-05T09:13:18.833Z,636.3
2022-08-05T09:15:02.526Z,648.2
2022-08-05T09:16:46.221Z,655.1
2022-08-05T09:18:29.925Z,657.3
2022-08-05T09:20:13.660Z,652.1
2022-08-05T09:21:57.337Z,645.7
2022-08-05T09:23:41.039Z,638.2
2022-08-05T09:25:24.744Z,631.9
2022-08-05T09:27:08.456Z,631.2
2022-08-05T09:28:52.152Z,628
2022-08-05T09:30:35.866Z,623.6
2022-08-05T09:32:19.556Z,623.3
2022-08-05T09:34:03.280Z,628
2022-08-05T09:35:46.938Z,635.3
2022-08-05T09:37:30.725Z,643.4
2022-08-05T09:39:14.380Z,650.3
2022-08-05T09:40:58.073Z,655
2022-08-05T09:42:41.768Z,655.1
2022-08-05T09:44:25.458Z,653.4
2022-08-05T09:46:09.165Z,651.9
2022-08-05T09:47:52.874Z,648.2
2022-08-05T09:49:36.576Z,647.8
2022-08-05T09:51:20.274Z,647.5
2022-08-05T09:53:03.981Z,646.5
2022-08-05T09:54:47.692Z,645.6
2022-08-05T09:56:31.409Z,651.7
2022-08-05T09:58:15.113Z,659.4
2022-08-05T09:59:58.825Z,665.7
2022-08-05T10:01:42.507Z,677.9
2022-08-05T10:03:26.218Z,683.8
2022-08-05T10:05:09.919Z,696
2022-08-05T10:06:53.616Z,706.8
2022-08-05T10:08:37.307Z,712.1
2022-08-05T10:10:21.021Z,712.6
2022-08-05T10:12:04.722Z,720.8
2022-08-05T10:13:48.447Z,724.7
2022-08-05T10:15:32.127Z,726.7
2022-08-05T10:17:15.843Z,727.4
2022-08-05T10:18:59.538Z,728.8
2022-08-05T10:20:43.241Z,721.8
2022-08-05T10:22:26.951Z,718.8
2022-08-05T10:24:10.654Z,715.2
2022-08-05T10:25:54.362Z,714.4
2022-08-05T10:27:38.070Z,699.3
2022-08-05T10:29:21.788Z,662.1
2022-08-05T10:31:05.473Z,641.8
2022-08-05T10:32:49.164Z,639
2022-08-05T10:34:32.886Z,643
2022-08-05T10:36:16.557Z,663.4
2022-08-05T10:38:00.279Z,693.7
2022-08-05T10:39:43.982Z,707.7
2022-08-05T10:41:27.687Z,710.5
2022-08-05T10:43:11.378Z,714.9
2022-08-05T10:44:55.095Z,719.7
2022-08-05T10:46:38.793Z,717
2022-08-05T10:48:22.491Z,708
2022-08-05T10:50:06.193Z,702.7
2022-08-05T10:51:49.898Z,700.1
2022-08-05T10:53:33.611Z,701.3
2022-08-05T10:55:17.296Z,699.9
2022-08-05T10:57:01.015Z,696.7
2022-08-05T10:58:44.715Z,694.9
2022-08-05T11:00:28.424Z,691.6
2022-08-05T11:02:12.131Z,689
2022-08-05T11:03:55.823Z,689
2022-08-05T11:05:39.535Z,689.4
2022-08-05T11:07:23.241Z,689.8
2022-08-05T11:09:06.935Z,692.9
2022-08-05T11:10:50.627Z,695.2
2022-08-05T11:12:34.332Z,691.7
2022-08-05T11:14:18.051Z,687.6
2022-08-05T11:16:01.752Z,690.7
2022-08-05T11:17:45.442Z,692.7
2022-08-05T11:19:29.155Z,695.7
2022-08-05T11:21:12.870Z,697.5
2022-08-05T11:22:56.574Z,696.9
2022-08-05T11:24:40.277Z,696.4
2022-08-05T11:26:23.978Z,694.5
2022-08-05T11:28:07.655Z,692.9
2022-08-05T11:29:51.385Z,693.1
2022-08-05T11:31:35.088Z,695.4
2022-08-05T11:33:18.791Z,694.2
2022-08-05T11:35:02.469Z,696.9
2022-08-05T11:36:46.171Z,696.4
2022-08-05T11:38:29.872Z,697.4
2022-08-05T11:40:13.586Z,701.3
2022-08-05T11:41:57.278Z,709
2022-08-05T11:43:40.991Z,714.5
2022-08-05T11:45:24.697Z,737.3
2022-08-05T11:47:08.389Z,754.4
2022-08-05T11:48:52.101Z,765.8
2022-08-05T11:50:35.815Z,769.4
2022-08-05T11:52:19.505Z,772.1
2022-08-05T11:54:03.218Z,772.8
2022-08-05T11:55:46.913Z,777.1
2022-08-05T11:57:30.614Z,783.9
2022-08-05T11:59:14.317Z,788.6
2022-08-05T12:00:58.017Z,790
2022-08-05T12:02:41.723Z,788.5
2022-08-05T12:04:25.426Z,785.8
2022-08-05T12:06:09.125Z,783.6
2022-08-05T12:07:52.832Z,784
2022-08-05T12:09:36.521Z,785.1
2022-08-05T12:11:20.233Z,784.8
2022-08-05T12:13:03.934Z,783.8
2022-08-05T12:14:47.635Z,784.2
2022-08-05T12:16:31.345Z,781.7
2022-08-05T12:18:15.044Z,777
2022-08-05T12:19:58.748Z,771.3
2022-08-05T12:21:42.436Z,765.9
2022-08-05T12:23:26.163Z,762.4
2022-08-05T12:25:09.842Z,759.2
2022-08-05T12:26:53.556Z,757.1
2022-08-05T12:28:37.255Z,751.8
2022-08-05T12:30:20.954Z,748.7
2022-08-05T12:32:04.654Z,745
2022-08-05T12:33:48.355Z,742.1
2022-08-05T12:35:32.057Z,737.5
2022-08-05T12:37:15.776Z,734.1
2022-08-05T12:38:59.468Z,730.2
2022-08-05T12:40:43.159Z,729.6
2022-08-05T12:42:26.871Z,727.9
2022-08-05T12:44:10.587Z,725.8
2022-08-05T12:45:54.295Z,725.6
2022-08-05T12:47:37.987Z,727.4
2022-08-05T12:49:21.690Z,728.5
2022-08-05T12:51:05.400Z,728.3
2022-08-05T12:52:49.094Z,729.9
2022-08-05T12:54:32.779Z,728.5
2022-08-05T12:56:16.486Z,726.5
2022-08-05T12:58:00.205Z,728
2022-08-05T12:59:43.907Z,729.5
2022-08-05T13:01:27.614Z,731.1
2022-08-05T13:03:11.301Z,732.4
2022-08-05T13:04:55.006Z,732.9
2022-08-05T13:06:38.722Z,735
2022-08-05T13:08:22.434Z,737.9
2022-08-05T13:10:06.117Z,737.1
2022-08-05T13:11:49.842Z,736
2022-08-05T13:13:33.531Z,733.2
2022-08-05T13:15:17.240Z,734
2022-08-05T13:17:00.936Z,733.3
2022-08-05T13:18:44.661Z,735
2022-08-05T13:20:28.340Z,735.6
2022-08-05T13:22:12.074Z,736.5
2022-08-05T13:23:55.747Z,738.8
2022-08-05T13:25:39.476Z,743.3
2022-08-05T13:27:23.147Z,747
2022-08-05T13:29:06.847Z,746.9
2022-08-05T13:30:50.562Z,748.7
2022-08-05T13:32:34.275Z,748.5
2022-08-05T13:34:17.959Z,745.8
2022-08-05T13:36:01.668Z,741.3
2022-08-05T13:37:45.368Z,735.8
2022-08-05T13:39:29.073Z,732.7
2022-08-05T13:41:12.786Z,733.7
2022-08-05T13:42:56.472Z,734.2
2022-08-05T13:44:40.184Z,736.4
2022-08-05T13:46:23.885Z,737
2022-08-05T13:48:07.582Z,741.1
2022-08-05T13:49:51.298Z,743
2022-08-05T13:51:35.001Z,742.2
2022-08-05T13:53:18.695Z,744.8
2022-08-05T13:55:02.400Z,746.4
2022-08-05T13:56:46.128Z,744.2
2022-08-05T13:58:29.813Z,745.4
2022-08-05T14:00:13.497Z,745.3
2022-08-05T14:01:57.218Z,750.7
2022-08-05T14:03:41.986Z,748.8
2022-08-05T14:05:24.622Z,747.2
2022-08-05T14:07:08.316Z,749.8
2022-08-05T14:08:52.025Z,749.9
2022-08-05T14:10:35.734Z,751
2022-08-05T14:12:19.427Z,753.7
2022-08-05T14:14:03.130Z,754.8
2022-08-05T14:15:46.836Z,755.8
2022-08-05T14:17:30.553Z,754.7
2022-08-05T14:19:14.236Z,752.8
2022-08-05T14:20:57.944Z,753.5
2022-08-05T14:22:41.667Z,755.3
2022-08-05T14:24:25.353Z,758.1
2022-08-05T14:26:09.061Z,757.2
2022-08-05T14:27:52.760Z,759.9
2022-08-05T14:29:36.474Z,763.8
2022-08-05T14:31:20.179Z,765.1
2022-08-05T14:33:03.883Z,762.9
2022-08-05T14:34:47.559Z,762.8
2022-08-05T14:36:31.306Z,765.1
2022-08-05T14:38:14.980Z,764.1
2022-08-05T14:39:58.670Z,765.2
2022-08-05T14:41:42.378Z,764
2022-08-05T14:43:26.089Z,765.7
2022-08-05T14:45:09.779Z,766.5
2022-08-05T14:46:53.473Z,767.7
2022-08-05T14:48:37.193Z,765.4
2022-08-05T14:50:20.896Z,763.4
2022-08-05T14:52:04.625Z,762.2
2022-08-05T14:53:48.302Z,759.1
2022-08-05T14:55:32.029Z,759.8
2022-08-05T14:57:15.702Z,760.7
2022-08-05T14:58:59.410Z,761.4
2022-08-05T15:00:43.123Z,761.7
2022-08-05T15:02:26.794Z,761.6
2022-08-05T15:04:10.526Z,760.2
2022-08-05T15:05:54.212Z,761
2022-08-05T15:07:37.913Z,759.1
2022-08-05T15:09:21.635Z,757.7
2022-08-05T15:11:05.303Z,749.2
2022-08-05T15:12:49.012Z,742.1
2022-08-05T15:14:32.719Z,737.6
2022-08-05T15:16:16.431Z,737.2
2022-08-05T15:18:00.140Z,734.6
2022-08-05T15:19:43.856Z,734.1
2022-08-05T15:21:27.537Z,738.8
2022-08-05T15:23:11.234Z,744.1
2022-08-05T15:24:54.923Z,745.8
2022-08-05T15:26:38.660Z,744
2022-08-05T15:28:22.352Z,743.4
2022-08-05T15:30:06.065Z,741
2022-08-05T15:31:49.759Z,737.1
2022-08-05T15:33:33.453Z,732.4
2022-08-05T15:35:17.184Z,724.6
2022-08-05T15:37:00.883Z,718.9
2022-08-05T15:38:44.573Z,714.6
2022-08-05T15:40:28.266Z,709.9
2022-08-05T15:42:11.973Z,706.8
2022-08-05T15:43:55.675Z,698
2022-08-05T15:45:39.375Z,691.7
2022-08-05T15:47:23.089Z,689.4
2022-08-05T15:49:06.797Z,687.4
2022-08-05T15:50:50.499Z,684.6
2022-08-05T15:52:34.240Z,684.1
2022-08-05T15:54:17.915Z,677.7
2022-08-05T15:56:01.600Z,673.1
2022-08-05T15:57:45.306Z,667.1
2022-08-05T15:59:28.995Z,654.2
2022-08-05T16:01:12.704Z,645.4
2022-08-05T16:02:56.402Z,643.4
2022-08-05T16:04:40.107Z,645
2022-08-05T16:06:23.838Z,649.1
2022-08-05T16:08:07.528Z,651.8
2022-08-05T16:09:51.227Z,655.8
2022-08-05T16:11:34.906Z,660
2022-08-05T16:13:18.616Z,663.4
2022-08-05T16:15:02.336Z,667
2022-08-05T16:16:46.049Z,670
2022-08-05T16:18:29.739Z,670.7
2022-08-05T16:20:13.444Z,669.8
2022-08-05T16:21:57.132Z,667.5
2022-08-05T16:23:40.830Z,666
2022-08-05T16:25:24.548Z,663.4
2022-08-05T16:27:08.249Z,662.5
2022-08-05T16:28:51.946Z,662.9
2022-08-05T16:30:35.648Z,663.8
2022-08-05T16:32:19.333Z,666
2022-08-05T16:34:03.065Z,665.2
2022-08-05T16:35:46.766Z,662.5
2022-08-05T16:37:30.444Z,659.1
2022-08-05T16:39:14.182Z,657
2022-08-05T16:40:57.875Z,657.6
2022-08-05T16:42:41.561Z,661.5
2022-08-05T16:44:25.257Z,669.9
2022-08-05T16:46:08.998Z,678.3
2022-08-05T16:47:52.665Z,684.8
2022-08-05T16:49:36.395Z,697.5
2022-08-05T16:51:20.078Z,704.6
2022-08-05T16:53:03.770Z,707.6
2022-08-05T16:54:47.487Z,711.7
2022-08-05T16:56:31.186Z,711.5
2022-08-05T16:58:14.885Z,715.7
2022-08-05T16:59:58.574Z,717.2
2022-08-05T17:01:42.284Z,719.7
2022-08-05T17:03:25.956Z,722.8
2022-08-05T17:05:09.671Z,727.4
2022-08-05T17:06:53.390Z,732.6
2022-08-05T17:08:37.111Z,735.1
2022-08-05T17:10:20.824Z,735.3
2022-08-05T17:12:04.485Z,737.5
2022-08-05T17:13:48.162Z,740.3
2022-08-05T17:15:31.887Z,742.3
2022-08-05T17:17:15.620Z,743.9
2022-08-05T17:18:59.290Z,742.7
2022-08-05T17:20:43.019Z,742.4
2022-08-05T17:22:26.689Z,744.3
2022-08-05T17:24:10.388Z,744
2022-08-05T17:25:54.105Z,744.4
2022-08-05T17:27:37.818Z,747.7
2022-08-05T17:29:21.505Z,748.6
2022-08-05T17:31:05.178Z,747
2022-08-05T17:32:48.879Z,746
2022-08-05T17:34:32.606Z,749.8
2022-08-05T17:36:16.288Z,750.9
2022-08-05T17:38:00.022Z,754.6
2022-08-05T17:39:43.709Z,747.4
2022-08-05T17:41:27.391Z,734.7
2022-08-05T17:43:11.099Z,727.5
2022-08-05T17:44:54.832Z,723.4
2022-08-05T17:46:38.515Z,722.7
2022-08-05T17:48:22.230Z,723.3
2022-08-05T17:50:05.605Z,714.7
2022-08-05T17:51:49.320Z,713.4
2022-08-05T17:53:33.023Z,714.4
2022-08-05T17:55:16.721Z,716.7
2022-08-05T17:57:00.433Z,720.8
2022-08-05T17:58:44.117Z,722.4
2022-08-05T18:00:27.845Z,726
2022-08-05T18:02:11.564Z,726.5
2022-08-05T18:03:55.237Z,731.5
2022-08-05T18:05:38.927Z,730.8
2022-08-05T18:07:22.642Z,731.8
2022-08-05T18:09:06.354Z,733.5
2022-08-05T18:10:50.062Z,732.1
2022-08-05T18:12:33.751Z,732.3
2022-08-05T18:14:17.447Z,734.3
2022-08-05T18:16:01.159Z,735.8
2022-08-05T18:17:44.833Z,733.3
2022-08-05T18:19:28.564Z,732.4
2022-08-05T18:21:12.270Z,729.6
2022-08-05T18:22:55.957Z,726.8
2022-08-05T18:24:39.657Z,723.3
2022-08-05T18:26:23.363Z,721.7
2022-08-05T18:28:07.083Z,717.6
2022-08-05T18:29:50.760Z,714.7
2022-08-05T18:31:34.483Z,714.4
2022-08-05T18:33:18.151Z,712.8
2022-08-05T18:35:01.864Z,712.5
2022-08-05T18:36:45.556Z,710.6
2022-08-05T18:38:29.297Z,710.5
2022-08-05T18:40:12.950Z,713
2022-08-05T18:41:56.679Z,711.7
2022-08-05T18:43:40.363Z,709.6
2022-08-05T18:45:24.083Z,707.5
2022-08-05T18:47:07.769Z,703.4
2022-08-05T18:48:51.478Z,703.3
2022-08-05T18:50:35.152Z,701.5
2022-08-05T18:52:18.879Z,701.8
2022-08-05T18:54:02.592Z,699.2
2022-08-05T18:55:46.273Z,697.5
2022-08-05T18:57:30.001Z,697.2
2022-08-05T18:59:13.674Z,695.2
2022-08-05T19:00:57.382Z,693.3
2022-08-05T19:02:41.082Z,692.7
2022-08-05T19:04:24.795Z,691.8
2022-08-05T19:06:08.522Z,689.2
2022-08-05T19:07:52.199Z,689.9
2022-08-05T19:09:35.903Z,690.1
2022-08-05T19:11:19.590Z,688.1
2022-08-05T19:13:03.310Z,686.3
2022-08-05T19:14:47.002Z,684.9
2022-08-05T19:16:30.705Z,681.1
2022-08-05T19:18:14.428Z,678.8
2022-08-05T19:19:58.119Z,677.1
2022-08-05T19:21:41.812Z,673.7
2022-08-05T19:23:25.490Z,669.8
2022-08-05T19:25:09.226Z,668.7
2022-08-05T19:26:52.911Z,671
2022-08-05T19:28:36.619Z,667.9
2022-08-05T19:30:20.313Z,671.2
2022-08-05T19:32:03.999Z,626
2022-08-05T19:33:47.718Z,516.7
2022-08-05T19:35:31.425Z,507.5
2022-08-05T19:37:15.118Z,496.3
2022-08-05T19:38:58.823Z,489.1
2022-08-05T19:40:42.514Z,482.7
2022-08-05T19:42:26.218Z,479.2
2022-08-05T19:44:09.936Z,472.2
2022-08-05T19:45:53.619Z,465.3
2022-08-05T19:47:37.331Z,461.2
2022-08-05T19:49:21.031Z,453.8
2022-08-05T19:51:04.736Z,442.3
2022-08-05T19:52:48.439Z,431.3
2022-08-05T19:54:32.147Z,427.7
2022-08-05T19:56:15.832Z,424.5
2022-08-05T19:57:59.527Z,420.1
2022-08-05T19:59:43.231Z,417.6
2022-08-05T20:01:26.945Z,418
2022-08-05T20:03:10.638Z,417.3
2022-08-05T20:04:54.340Z,420.5
2022-08-05T20:06:38.054Z,420.6
2022-08-05T20:08:21.748Z,416.7
2022-08-05T20:10:05.443Z,415.2
2022-08-05T20:11:49.133Z,414.8
2022-08-05T20:13:32.854Z,415
2022-08-05T20:15:16.557Z,415.8
2022-08-05T20:17:00.231Z,414.8
2022-08-05T20:18:43.948Z,414.1
2022-08-05T20:20:27.652Z,414.1
2022-08-05T20:22:11.351Z,411.4
2022-08-05T20:23:55.048Z,413.8
2022-08-05T20:25:38.736Z,414
2022-08-05T20:27:22.435Z,413.4
2022-08-05T20:29:06.150Z,414.6
2022-08-05T20:30:49.855Z,414.3
2022-08-05T20:32:33.560Z,419
2022-08-05T20:34:17.240Z,422.3
2022-08-05T20:36:00.974Z,422.3
2022-08-05T20:37:44.636Z,423.8
2022-08-05T20:39:28.369Z,423.5
2022-08-05T20:41:12.068Z,424.8
2022-08-05T20:42:55.754Z,425
2022-08-05T20:44:39.474Z,423.2
2022-08-05T20:46:23.180Z,422.3
2022-08-05T20:48:06.904Z,422.4
2022-08-05T20:49:50.565Z,422.9
2022-08-05T20:51:34.275Z,425.4
2022-08-05T20:53:17.977Z,428.7
2022-08-05T20:55:01.689Z,429.6
2022-08-05T20:56:45.374Z,433
2022-08-05T20:58:29.067Z,432.6
2022-08-05T21:00:12.786Z,430.8
2022-08-05T21:01:56.486Z,428.7
2022-08-05T21:03:40.178Z,429.6
2022-08-05T21:05:23.893Z,430.2
2022-08-05T21:07:07.601Z,429.9
2022-08-05T21:08:51.288Z,429.2
2022-08-05T21:10:35.009Z,428.9
2022-08-05T21:12:18.680Z,425.6
2022-08-05T21:14:02.398Z,425.1
2022-08-05T21:15:46.113Z,426.2
2022-08-05T21:17:29.797Z,428.5
2022-08-05T21:19:13.495Z,428.9
2022-08-05T21:20:57.217Z,428
2022-08-05T21:22:40.888Z,426.1
2022-08-05T21:24:24.621Z,426.3
2022-08-05T21:26:08.313Z,428.7
2022-08-05T21:27:52.013Z,430.1
2022-08-05T21:29:35.721Z,430.7
2022-08-05T21:31:19.424Z,432.7
2022-08-05T21:33:03.102Z,433.2
2022-08-05T21:34:46.822Z,434.3
2022-08-05T21:36:30.505Z,435.1
2022-08-05T21:38:14.198Z,434.4
2022-08-05T21:39:57.921Z,432.9
2022-08-05T21:41:41.635Z,430.8
2022-08-05T21:43:25.327Z,429
2022-08-05T21:45:09.021Z,428.5
2022-08-05T21:46:52.711Z,427.4
2022-08-05T21:48:36.427Z,428.8
2022-08-05T21:50:20.119Z,431.4
2022-08-05T21:52:03.845Z,429.4
2022-08-05T21:53:47.536Z,427.3
2022-08-05T21:55:31.239Z,428.4
2022-08-05T21:57:14.948Z,426.9
2022-08-05T21:58:58.633Z,424.9
2022-08-05T22:00:42.360Z,420.1
2022-08-05T22:02:26.046Z,417.6
2022-08-05T22:04:09.747Z,419.4
2022-08-05T22:05:53.469Z,421
2022-08-05T22:09:20.862Z,427.1
2022-08-05T22:11:04.587Z,431.3
2022-08-05T22:12:48.269Z,436.3
2022-08-05T22:14:31.994Z,436
2022-08-05T22:16:15.671Z,432.7
2022-08-05T22:17:59.356Z,430.6
2022-08-05T22:19:43.072Z,432
2022-08-05T22:21:26.764Z,429.1
2022-08-05T22:23:10.468Z,428.5
2022-08-05T22:24:54.166Z,426.7
2022-08-05T22:26:37.886Z,426.8
2022-08-05T22:28:21.588Z,424.1
2022-08-05T22:30:05.265Z,426
2022-08-05T22:31:48.982Z,428.9